createdAt,value
2023-04-17T00:00:23.255Z,11.14
2023-04-17T00:02:50.251Z,10.99
2023-04-17T00:05:17.335Z,11.27
2023-04-17T00:07:45.133Z,10.89
2023-04-17T00:10:12.397Z,11.24
2023-04-17T00:12:42.086Z,11.31
2023-04-17T00:15:09.181Z,11.26
2023-04-17T00:17:36.089Z,11.31
2023-04-17T00:20:07.910Z,11.30
2023-04-17T00:22:37.674Z,11.23
2023-04-17T00:25:04.770Z,11.40
2023-04-17T00:27:31.608Z,11.11
2023-04-17T00:29:58.625Z,11.22
2023-04-17T00:32:25.616Z,11.13
2023-04-17T00:34:55.586Z,11.20
2023-04-17T00:37:22.712Z,11.47
2023-04-17T00:39:49.576Z,11.04
2023-04-17T00:42:16.329Z,10.83
2023-04-17T00:44:43.044Z,10.49
2023-04-17T00:47:09.762Z,10.74
2023-04-17T00:49:36.556Z,10.70
2023-04-17T00:52:03.714Z,11.00
2023-04-17T00:54:31.890Z,10.65
2023-04-17T00:56:59.919Z,11.21
2023-04-17T00:59:29.084Z,11.07
2023-04-17T01:01:55.891Z,10.84
2023-04-17T01:04:22.673Z,10.69
2023-04-17T01:06:49.692Z,10.92
2023-04-17T01:09:16.754Z,11.10
2023-04-17T01:11:43.510Z,10.92
2023-04-17T01:14:10.422Z,11.08
2023-04-17T01:16:39.351Z,11.23
2023-04-17T01:19:07.382Z,11.30
2023-04-17T01:21:34.591Z,11.23
2023-04-17T01:24:03.482Z,11.32
2023-04-17T01:26:31.826Z,11.32
2023-04-17T01:28:59.942Z,11.19
2023-04-17T01:31:28.960Z,10.70
2023-04-17T01:33:55.885Z,11.27
2023-04-17T01:36:23.052Z,10.84
2023-04-17T01:38:49.774Z,10.94
2023-04-17T01:41:17.588Z,10.71
2023-04-17T01:43:47.120Z,10.57
2023-04-17T01:46:14.152Z,10.88
2023-04-17T01:48:41.067Z,11.06
2023-04-17T01:51:08.104Z,11.14
2023-04-17T01:53:35.279Z,11.18
2023-04-17T01:56:02.223Z,10.92
2023-04-17T01:58:29.569Z,11.37
2023-04-17T02:00:56.287Z,10.78
2023-04-17T02:03:24.739Z,10.58
2023-04-17T02:05:53.350Z,10.96
2023-04-17T02:08:20.589Z,11.02
2023-04-17T02:10:47.381Z,11.11
2023-04-17T02:13:14.327Z,10.78
2023-04-17T02:15:41.124Z,11.05
2023-04-17T02:18:08.006Z,11.30
2023-04-17T02:20:35.555Z,10.87
2023-04-17T02:23:05.991Z,10.27
2023-04-17T02:25:33.506Z,10.67
2023-04-17T02:28:00.849Z,11.03
2023-04-17T02:30:28.182Z,11.27
2023-04-17T02:32:56.189Z,10.94
2023-04-17T02:35:25.775Z,11.09
2023-04-17T02:37:53.002Z,10.69
2023-04-17T02:40:20.042Z,10.42
2023-04-17T02:42:46.743Z,10.34
2023-04-17T02:45:13.551Z,10.51
2023-04-17T02:47:40.590Z,10.97
2023-04-17T02:50:13.367Z,11.00
2023-04-17T02:52:40.544Z,10.82
2023-04-17T02:55:07.633Z,10.50
2023-04-17T02:57:34.559Z,10.37
2023-04-17T03:00:08.358Z,10.14
2023-04-17T03:02:36.529Z,10.04
2023-04-17T03:05:04.399Z,10.26
2023-04-17T03:07:31.997Z,10.04
2023-04-17T03:09:59.151Z,10.13
2023-04-17T03:12:25.946Z,10.30
2023-04-17T03:14:55.770Z,9.99
2023-04-17T03:17:23.794Z,9.87
2023-04-17T03:19:50.572Z,10.31
2023-04-17T03:22:17.579Z,10.04
2023-04-17T03:24:44.430Z,10.31
2023-04-17T03:27:11.676Z,10.41
2023-04-17T03:29:38.587Z,10.22
2023-04-17T03:32:05.735Z,10.63
2023-04-17T03:34:32.581Z,10.60
2023-04-17T03:36:59.892Z,10.78
2023-04-17T03:39:27.342Z,10.36
2023-04-17T03:41:54.051Z,10.72
2023-04-17T03:44:21.358Z,10.89
2023-04-17T03:46:48.506Z,10.72
2023-04-17T03:49:15.762Z,10.38
2023-04-17T03:51:43.001Z,10.30
2023-04-17T03:54:09.980Z,10.63
2023-04-17T03:56:37.434Z,10.71
2023-04-17T03:59:07.405Z,10.46
2023-04-17T04:01:34.395Z,11.16
2023-04-17T04:04:01.954Z,10.73
2023-04-17T04:06:29.956Z,10.91
2023-04-17T04:08:59.623Z,11.16
2023-04-17T04:11:26.405Z,10.74
2023-04-17T04:13:53.572Z,10.60
2023-04-17T04:16:20.304Z,10.72
2023-04-17T04:18:47.202Z,10.79
2023-04-17T04:21:14.264Z,10.66
2023-04-17T04:23:41.475Z,10.90
2023-04-17T04:26:08.366Z,10.55
2023-04-17T04:28:35.339Z,10.51
2023-04-17T04:31:02.922Z,10.83
2023-04-17T04:33:30.454Z,10.58
2023-04-17T04:36:01.939Z,10.78
2023-04-17T04:38:41.990Z,10.72
2023-04-17T04:41:18.887Z,10.63
2023-04-17T04:43:45.694Z,11.12
2023-04-17T04:46:12.851Z,11.34
2023-04-17T04:48:42.681Z,10.91
2023-04-17T04:51:14.436Z,10.68
2023-04-17T04:53:41.653Z,11.47
2023-04-17T04:56:08.637Z,11.65
2023-04-17T04:58:35.692Z,11.78
2023-04-17T05:01:02.941Z,11.51
2023-04-17T05:03:30.010Z,11.14
2023-04-17T05:05:57.375Z,11.05
2023-04-17T05:08:24.164Z,11.14
2023-04-17T05:10:51.659Z,11.64
2023-04-17T05:13:18.443Z,11.47
2023-04-17T05:15:45.515Z,11.69
2023-04-17T05:18:12.442Z,11.72
2023-04-17T05:20:42.135Z,11.49
2023-04-17T05:23:08.958Z,11.64
2023-04-17T05:25:35.903Z,11.83
2023-04-17T05:28:02.735Z,12.10
2023-04-17T05:30:29.452Z,11.98
2023-04-17T05:32:56.417Z,11.79
2023-04-17T05:35:23.254Z,11.63
2023-04-17T05:37:50.161Z,11.52
2023-04-17T05:40:16.999Z,11.47
2023-04-17T05:42:43.816Z,11.42
2023-04-17T05:45:18.917Z,11.14
2023-04-17T05:47:45.738Z,11.82
2023-04-17T05:50:12.521Z,11.55
2023-04-17T05:52:39.624Z,11.45
2023-04-17T05:55:07.163Z,11.45
2023-04-17T05:57:34.257Z,11.38
2023-04-17T06:00:01.148Z,11.58
2023-04-17T06:02:28.075Z,11.62
2023-04-17T06:04:55.978Z,11.67
2023-04-17T06:07:24.913Z,11.53
2023-04-17T06:09:51.641Z,11.34
2023-04-17T06:12:18.325Z,11.48
2023-04-17T06:14:45.437Z,12.07
2023-04-17T06:17:12.551Z,11.96
2023-04-17T06:19:39.769Z,12.18
2023-04-17T06:22:07.096Z,12.06
2023-04-17T06:24:34.459Z,11.89
2023-04-17T06:27:03.862Z,11.97
2023-04-17T06:29:30.973Z,12.05
2023-04-17T06:31:57.827Z,12.17
2023-04-17T06:34:24.502Z,12.01
2023-04-17T06:36:51.733Z,12.10
2023-04-17T06:39:18.632Z,11.94
2023-04-17T06:41:45.617Z,12.31
2023-04-17T06:44:12.378Z,12.27
2023-04-17T06:46:39.260Z,12.36
2023-04-17T06:49:06.527Z,12.02
2023-04-17T06:51:37.833Z,13.66
2023-04-17T06:54:05.112Z,13.88
2023-04-17T06:56:31.914Z,14.36
2023-04-17T06:58:59.797Z,14.53
2023-04-17T07:01:29.384Z,14.48
2023-04-17T07:03:56.306Z,13.77
2023-04-17T07:06:24.490Z,12.82
2023-04-17T07:08:52.592Z,12.86
2023-04-17T07:11:22.098Z,12.56
2023-04-17T07:13:58.085Z,12.37
2023-04-17T07:16:28.750Z,12.27
2023-04-17T07:18:55.784Z,12.39
2023-04-17T07:21:23.831Z,12.85
2023-04-17T07:23:56.231Z,12.80
2023-04-17T07:26:22.987Z,13.00
2023-04-17T07:28:52.868Z,13.08
2023-04-17T07:31:21.764Z,13.05
2023-04-17T07:33:48.730Z,12.66
2023-04-17T07:36:15.972Z,12.69
2023-04-17T07:38:46.627Z,12.80
2023-04-17T07:41:13.647Z,12.62
2023-04-17T07:43:45.867Z,12.64
2023-04-17T07:46:12.989Z,12.96
2023-04-17T07:48:39.784Z,13.09
2023-04-17T07:51:07.877Z,13.19
2023-04-17T07:53:36.433Z,13.59
2023-04-17T07:56:16.175Z,13.60
2023-04-17T07:58:45.410Z,13.73
2023-04-17T08:01:12.116Z,13.48
2023-04-17T08:03:41.625Z,13.54
2023-04-17T08:06:11.182Z,13.43
2023-04-17T08:08:38.908Z,13.32
2023-04-17T08:11:05.921Z,13.51
2023-04-17T08:13:32.750Z,13.04
2023-04-17T08:15:59.827Z,13.50
2023-04-17T08:18:28.662Z,13.50
2023-04-17T08:20:56.907Z,14.29
2023-04-17T08:23:24.024Z,13.75
2023-04-17T08:25:51.106Z,13.19
2023-04-17T08:28:18.152Z,13.25
2023-04-17T08:31:00.154Z,13.59
2023-04-17T08:33:27.433Z,13.94
2023-04-17T08:35:58.110Z,14.04
2023-04-17T08:38:25.036Z,13.87
2023-04-17T08:40:55.789Z,13.64
2023-04-17T08:43:30.773Z,14.02
2023-04-17T08:45:57.841Z,13.89
2023-04-17T08:48:33.957Z,14.09
2023-04-17T08:51:05.389Z,14.32
2023-04-17T08:53:32.307Z,14.47
2023-04-17T08:56:14.213Z,14.25
2023-04-17T08:58:40.966Z,14.96
2023-04-17T09:01:11.663Z,14.67
2023-04-17T09:03:45.939Z,14.55
2023-04-17T09:06:25.784Z,15.19
2023-04-17T09:08:58.630Z,15.27
2023-04-17T09:11:26.672Z,15.20
2023-04-17T09:13:53.928Z,15.74
2023-04-17T09:16:24.262Z,15.97
2023-04-17T09:18:55.612Z,15.51
2023-04-17T09:24:10.378Z,16.21
2023-04-17T09:26:37.476Z,16.26
2023-04-17T09:29:09.038Z,15.59
2023-04-17T09:31:37.960Z,16.38
2023-04-17T09:34:16.726Z,16.50
2023-04-17T09:36:45.486Z,16.75
2023-04-17T09:39:30.572Z,16.70
2023-04-17T09:42:04.125Z,17.09
2023-04-17T09:44:31.190Z,17.17
2023-04-17T09:47:02.529Z,17.46
2023-04-17T09:49:45.243Z,18.61
2023-04-17T09:52:13.464Z,18.52
2023-04-17T09:54:42.085Z,18.11
2023-04-17T09:57:10.343Z,18.41
2023-04-17T09:59:50.703Z,18.74
2023-04-17T10:02:19.918Z,18.22
2023-04-17T10:04:47.510Z,17.44
2023-04-17T10:07:14.611Z,16.67
2023-04-17T10:09:42.256Z,16.98
2023-04-17T10:12:15.637Z,17.37
2023-04-17T10:14:47.070Z,17.16
2023-04-17T10:17:34.580Z,16.66
2023-04-17T10:20:23.333Z,17.07
2023-04-17T10:22:54.874Z,16.99
2023-04-17T10:25:43.493Z,17.16
2023-04-17T10:28:13.870Z,17.56
2023-04-17T10:30:55.627Z,17.33
2023-04-17T10:36:39.301Z,17.98
2023-04-17T10:39:17.656Z,17.05
2023-04-17T10:42:06.479Z,17.19
2023-04-17T10:44:40.331Z,17.73
2023-04-17T10:49:54.593Z,17.83
2023-04-17T10:52:40.155Z,17.64
2023-04-17T10:55:52.964Z,18.11
2023-04-17T10:58:32.202Z,18.55
2023-04-17T11:01:03.892Z,18.79
2023-04-17T11:03:31.540Z,18.94
2023-04-17T11:06:00.989Z,19.41
2023-04-17T11:08:28.307Z,19.27
2023-04-17T11:11:09.581Z,18.73
2023-04-17T11:13:36.606Z,18.67
2023-04-17T11:16:07.628Z,19.27
2023-04-17T11:18:35.577Z,19.13
2023-04-17T11:21:02.522Z,19.42
2023-04-17T11:23:34.703Z,19.08
2023-04-17T11:26:04.857Z,18.52
2023-04-17T11:28:41.187Z,18.28
2023-04-17T11:31:08.038Z,18.14
2023-04-17T11:33:38.172Z,17.80
2023-04-17T11:36:06.537Z,17.42
2023-04-17T11:38:35.977Z,17.74
2023-04-17T11:41:05.427Z,18.14
2023-04-17T11:43:44.590Z,18.08
2023-04-17T11:46:11.492Z,18.58
2023-04-17T11:48:38.306Z,18.81
2023-04-17T11:51:06.077Z,18.26
2023-04-17T11:53:36.384Z,18.43
2023-04-17T11:56:18.419Z,18.86
2023-04-17T11:58:53.192Z,18.92
2023-04-17T12:01:25.578Z,18.99
2023-04-17T12:03:59.930Z,19.61
2023-04-17T12:06:45.189Z,18.73
2023-04-17T12:09:21.363Z,17.74
2023-04-17T12:11:48.784Z,18.14
2023-04-17T12:14:15.820Z,17.77
2023-04-17T12:16:42.529Z,18.06
2023-04-17T12:19:11.049Z,17.64
2023-04-17T12:21:38.512Z,18.19
2023-04-17T12:24:06.071Z,17.90
2023-04-17T12:26:32.945Z,17.90
2023-04-17T12:28:59.904Z,18.05
2023-04-17T12:31:26.830Z,18.87
2023-04-17T12:33:53.754Z,18.43
2023-04-17T12:36:20.591Z,19.28
2023-04-17T12:38:47.641Z,18.39
2023-04-17T12:41:16.209Z,18.24
2023-04-17T12:43:43.022Z,18.46
2023-04-17T12:46:10.577Z,18.63
2023-04-17T12:48:43.782Z,18.06
2023-04-17T12:51:15.240Z,18.23
2023-04-17T12:53:42.685Z,18.55
2023-04-17T12:56:09.939Z,18.54
2023-04-17T12:58:37.409Z,18.20
2023-04-17T13:01:04.697Z,18.30
2023-04-17T13:03:31.952Z,18.58
2023-04-17T13:05:58.898Z,18.35
2023-04-17T13:08:25.833Z,18.64
2023-04-17T13:10:56.846Z,18.74
2023-04-17T13:13:23.635Z,18.11
2023-04-17T13:15:50.500Z,19.36
2023-04-17T13:18:17.509Z,18.62
2023-04-17T13:20:44.326Z,18.12
2023-04-17T13:23:12.031Z,18.48
2023-04-17T13:25:39.341Z,17.77
2023-04-17T13:28:10.819Z,18.19
2023-04-17T13:30:37.989Z,18.69
2023-04-17T13:33:05.256Z,18.20
2023-04-17T13:35:33.598Z,18.17
2023-04-17T13:38:03.435Z,18.48
2023-04-17T13:40:52.202Z,18.61
2023-04-17T13:43:21.951Z,19.19
2023-04-17T13:45:52.728Z,18.67
2023-04-17T13:48:40.989Z,19.13
2023-04-17T13:51:14.754Z,18.81
2023-04-17T13:53:41.874Z,18.67
2023-04-17T13:56:41.006Z,18.86
2023-04-17T13:59:08.433Z,19.13
2023-04-17T14:01:35.967Z,18.94
2023-04-17T14:04:12.934Z,18.42
2023-04-17T14:06:49.698Z,18.44
2023-04-17T14:09:20.811Z,17.54
2023-04-17T14:11:47.745Z,18.08
2023-04-17T14:14:18.180Z,18.07
2023-04-17T14:17:16.661Z,17.76
2023-04-17T14:20:25.192Z,17.78
2023-04-17T14:22:54.564Z,18.09
2023-04-17T14:25:24.708Z,18.24
2023-04-17T14:28:17.842Z,18.07
2023-04-17T14:30:47.967Z,18.28
2023-04-17T14:33:22.193Z,18.01
2023-04-17T14:35:49.272Z,18.60
2023-04-17T14:38:16.372Z,18.38
2023-04-17T14:40:43.529Z,18.20
2023-04-17T14:43:17.333Z,18.04
2023-04-17T14:45:45.676Z,17.90
2023-04-17T14:48:24.536Z,18.15
2023-04-17T14:50:53.624Z,17.92
2023-04-17T14:53:28.092Z,17.80
2023-04-17T14:55:55.167Z,18.00
2023-04-17T14:58:22.127Z,17.86
2023-04-17T15:00:49.218Z,17.85
2023-04-17T15:03:24.050Z,17.86
2023-04-17T15:05:55.595Z,17.90
2023-04-17T15:08:36.112Z,17.71
2023-04-17T15:11:02.848Z,17.90
2023-04-17T15:13:31.687Z,17.74
2023-04-17T15:16:01.543Z,17.86
2023-04-17T15:18:28.651Z,17.73
2023-04-17T15:20:58.957Z,17.29
2023-04-17T15:23:27.528Z,17.09
2023-04-17T15:26:00.125Z,16.98
2023-04-17T15:28:30.560Z,16.89
2023-04-17T15:30:57.425Z,16.79
2023-04-17T15:33:30.571Z,16.37
2023-04-17T15:36:05.522Z,16.93
2023-04-17T15:38:32.540Z,16.39
2023-04-17T15:40:59.524Z,16.13
2023-04-17T15:43:28.109Z,16.23
2023-04-17T15:45:55.608Z,16.49
2023-04-17T15:48:25.720Z,15.77
2023-04-17T15:50:52.609Z,16.02
2023-04-17T15:53:19.416Z,15.49
2023-04-17T15:55:58.685Z,15.24
2023-04-17T15:58:25.574Z,15.21
2023-04-17T16:00:52.351Z,15.33
2023-04-17T16:03:19.318Z,15.18
2023-04-17T16:05:46.385Z,15.12
2023-04-17T16:08:13.312Z,15.03
2023-04-17T16:10:40.872Z,14.80
2023-04-17T16:13:08.253Z,14.94
2023-04-17T16:15:37.047Z,15.32
2023-04-17T16:18:04.752Z,15.21
2023-04-17T16:20:31.929Z,15.23
2023-04-17T16:22:58.759Z,15.59
2023-04-17T16:25:25.776Z,15.85
2023-04-17T16:28:02.003Z,15.90
2023-04-17T16:30:29.268Z,15.99
2023-04-17T16:32:59.054Z,15.89
2023-04-17T16:35:26.408Z,15.93
2023-04-17T16:37:53.472Z,15.97
2023-04-17T16:40:20.261Z,15.42
2023-04-17T16:42:47.266Z,15.40
2023-04-17T16:45:14.496Z,15.15
2023-04-17T16:47:41.300Z,15.25
2023-04-17T16:50:11.159Z,15.58
2023-04-17T16:52:40.293Z,15.64
2023-04-17T16:55:08.240Z,14.81
2023-04-17T16:57:38.301Z,14.80
2023-04-17T17:00:06.431Z,15.21
2023-04-17T17:02:34.953Z,15.03
2023-04-17T17:05:01.967Z,15.42
2023-04-17T17:07:29.068Z,15.34
2023-04-17T17:09:55.899Z,14.82
2023-04-17T17:12:22.836Z,14.79
2023-04-17T17:14:49.999Z,14.70
2023-04-17T17:17:16.758Z,14.85
2023-04-17T17:19:43.533Z,14.68
2023-04-17T17:22:10.930Z,14.40
2023-04-17T17:24:37.993Z,14.32
2023-04-17T17:27:09.452Z,14.37
2023-04-17T17:29:36.303Z,14.16
2023-04-17T17:32:04.949Z,14.37
2023-04-17T17:34:32.602Z,14.25
2023-04-17T17:37:05.264Z,14.37
2023-04-17T17:39:37.563Z,14.38
2023-04-17T17:42:08.860Z,14.64
2023-04-17T17:44:36.382Z,14.50
2023-04-17T17:47:07.918Z,14.43
2023-04-17T17:49:35.264Z,14.60
2023-04-17T17:52:02.296Z,14.39
2023-04-17T17:54:29.365Z,14.16
2023-04-17T17:56:56.332Z,14.18
2023-04-17T17:59:23.264Z,14.04
2023-04-17T18:01:50.150Z,13.91
2023-04-17T18:04:17.365Z,13.98
2023-04-17T18:06:45.661Z,13.93
2023-04-17T18:09:12.400Z,13.98
2023-04-17T18:11:41.569Z,14.11
2023-04-17T18:14:10.752Z,14.22
2023-04-17T18:16:37.711Z,13.94
2023-04-17T18:19:28.159Z,13.95
2023-04-17T18:22:03.561Z,14.36
2023-04-17T18:24:32.170Z,13.99
2023-04-17T18:26:59.250Z,14.06
2023-04-17T18:29:30.222Z,14.26
2023-04-17T18:32:02.632Z,14.14
2023-04-17T18:34:29.530Z,14.57
2023-04-17T18:37:04.997Z,14.35
2023-04-17T18:39:31.809Z,14.41
2023-04-17T18:42:02.057Z,14.60
2023-04-17T18:44:29.219Z,14.67
2023-04-17T18:46:56.209Z,14.44
2023-04-17T18:49:23.071Z,14.75
2023-04-17T18:51:50.356Z,14.51
2023-04-17T18:54:17.838Z,14.32
2023-04-17T18:56:45.208Z,14.78
2023-04-17T18:59:12.126Z,14.80
2023-04-17T19:01:39.275Z,14.94
2023-04-17T19:04:06.353Z,14.85
2023-04-17T19:06:33.240Z,14.88
2023-04-17T19:09:04.907Z,14.77
2023-04-17T19:11:32.654Z,14.79
2023-04-17T19:13:59.431Z,14.74
2023-04-17T19:16:26.437Z,15.05
2023-04-17T19:18:53.219Z,15.09
2023-04-17T19:21:28.839Z,15.04
2023-04-17T20:45:38.718Z,12.95
2023-04-17T20:48:42.090Z,12.67
2023-04-17T20:51:09.413Z,12.89
2023-04-17T20:53:36.667Z,12.39
2023-04-17T20:56:03.928Z,12.62
2023-04-17T20:58:31.069Z,12.91
2023-04-17T21:01:01.615Z,12.62
2023-04-17T21:03:33.103Z,12.48
2023-04-17T21:06:01.117Z,12.30
2023-04-17T21:08:28.331Z,12.32
2023-04-17T21:10:55.648Z,12.54
2023-04-17T21:13:23.274Z,12.54
2023-04-17T21:16:13.403Z,12.57
2023-04-17T21:18:40.672Z,12.48
2023-04-17T21:21:12.769Z,12.60
2023-04-17T21:23:40.046Z,12.65
2023-04-17T21:26:07.356Z,12.71
2023-04-17T21:28:37.319Z,12.30
2023-04-17T21:31:08.809Z,12.48
2023-04-17T21:33:36.861Z,12.31
2023-04-17T21:36:04.058Z,12.24
2023-04-17T21:38:31.102Z,11.76
2023-04-17T21:41:01.191Z,12.05
2023-04-17T21:43:28.587Z,12.00
2023-04-17T21:45:57.263Z,11.98
2023-04-17T21:48:24.338Z,11.97
2023-04-17T21:51:07.819Z,12.13
2023-04-17T21:53:36.309Z,12.35
2023-04-17T21:56:05.604Z,12.36
2023-04-17T21:58:41.805Z,11.97
2023-04-17T22:01:09.362Z,12.09
2023-04-17T22:03:36.399Z,12.46
2023-04-17T22:06:03.566Z,12.19
2023-04-17T22:14:51.838Z,12.25
2023-04-17T22:17:28.647Z,12.00
2023-04-17T22:21:20.075Z,12.36
2023-04-17T22:23:27.449Z,12.23
2023-04-17T22:26:04.132Z,12.15
2023-04-17T22:28:31.725Z,12.20
2023-04-17T22:30:59.552Z,11.81
2023-04-17T22:33:26.619Z,11.96
2023-04-17T22:35:53.609Z,11.81
2023-04-17T22:38:21.326Z,11.87
2023-04-17T22:40:48.707Z,11.72
2023-04-17T22:43:16.219Z,11.85
2023-04-17T22:45:43.576Z,12.11
2023-04-17T22:48:10.636Z,11.78
2023-04-17T22:50:38.536Z,11.38
2023-04-17T22:53:06.097Z,11.75
2023-04-17T22:55:34.831Z,11.30
2023-04-17T22:58:23.155Z,10.94
2023-04-17T23:00:57.370Z,10.86
2023-04-17T23:03:41.126Z,10.97
2023-04-17T23:06:35.809Z,11.33
2023-04-17T23:09:07.933Z,11.06
2023-04-17T23:11:46.731Z,11.23
2023-04-17T23:14:43.102Z,11.37
2023-04-17T23:17:16.361Z,11.18
2023-04-17T23:19:43.430Z,10.94
2023-04-17T23:22:10.312Z,10.75
2023-04-17T23:24:37.631Z,10.72
2023-04-17T23:27:04.530Z,10.66
2023-04-17T23:29:31.386Z,10.53
2023-04-17T23:31:58.579Z,10.59
2023-04-17T23:34:27.548Z,10.44
2023-04-17T23:36:54.493Z,10.79
2023-04-17T23:39:32.666Z,10.92
2023-04-17T23:42:07.222Z,10.54
2023-04-17T23:44:37.941Z,10.55
2023-04-17T23:47:06.223Z,10.27
2023-04-17T23:49:33.970Z,10.36
2023-04-17T23:52:04.215Z,10.38
2023-04-17T23:54:31.267Z,10.17
2023-04-17T23:56:58.329Z,10.36
2023-04-17T23:59:25.753Z,10.40
